createdAt,value
2023-04-18T00:03:57.100Z,79.39
2023-04-18T00:09:00.864Z,79.46
2023-04-18T00:14:04.750Z,79.64
2023-04-18T00:19:09.401Z,79.82
2023-04-18T00:24:13.503Z,79.94
2023-04-18T00:29:17.377Z,80.10
2023-04-18T00:34:21.167Z,80.31
2023-04-18T00:39:24.859Z,80.42
2023-04-18T00:59:12.253Z,81.04
2023-04-18T01:09:45.718Z,81.17
2023-04-18T01:15:15.058Z,81.11
2023-04-18T01:20:49.682Z,81.19
2023-04-18T01:25:53.390Z,81.38
2023-04-18T01:34:55.094Z,81.44
2023-04-18T01:39:58.790Z,81.49
2023-04-18T01:59:32.576Z,81.89
2023-04-18T02:23:53.634Z,82.00
2023-04-18T02:29:48.393Z,82.06
2023-04-18T02:34:52.024Z,82.03
2023-04-18T02:39:55.917Z,81.99
2023-04-18T02:44:59.615Z,82.04
2023-04-18T02:50:04.620Z,82.14
2023-04-18T02:55:08.706Z,82.21
2023-04-18T03:00:37.633Z,82.27
2023-04-18T03:05:41.457Z,82.22
2023-04-18T03:10:45.185Z,82.19
2023-04-18T03:24:27.276Z,82.32
2023-04-18T03:29:31.475Z,82.39
2023-04-18T03:53:44.423Z,82.82
2023-04-18T03:59:38.938Z,82.85
2023-04-18T04:04:58.231Z,83.03
2023-04-18T04:10:02.302Z,83.07
2023-04-18T04:15:07.045Z,83.17
2023-04-18T04:20:11.661Z,83.23
2023-04-18T04:25:17.693Z,83.04
2023-04-18T04:30:22.162Z,82.96
2023-04-18T04:35:26.872Z,82.86
2023-04-18T04:40:30.887Z,82.76
2023-04-18T04:45:35.048Z,82.68
2023-04-18T04:50:42.726Z,82.59
2023-04-18T04:55:48.499Z,82.61
2023-04-18T05:00:53.405Z,82.58
2023-04-18T05:13:18.734Z,82.47
2023-04-18T05:18:22.720Z,82.33
2023-04-18T05:30:48.394Z,82.11
2023-04-18T05:36:32.732Z,81.78
2023-04-18T05:41:36.667Z,81.79
2023-04-18T05:46:40.795Z,82.01
2023-04-18T05:53:10.567Z,82.05
2023-04-18T05:58:26.658Z,81.69
2023-04-18T06:18:39.451Z,81.07
2023-04-18T06:23:49.470Z,80.82
2023-04-18T06:29:18.583Z,80.18
2023-04-18T06:34:22.105Z,79.59
2023-04-18T06:41:07.738Z,78.90
2023-04-18T06:54:11.873Z,74.74
2023-04-18T07:01:12.874Z,73.77
2023-04-18T07:06:17.641Z,72.14
2023-04-18T07:20:13.062Z,70.16
2023-04-18T07:25:18.703Z,68.71
2023-04-18T07:30:22.630Z,68.02
2023-04-18T07:36:16.432Z,66.78
2023-04-18T07:48:28.683Z,64.93
2023-04-18T07:54:25.667Z,63.88
2023-04-18T08:00:20.589Z,63.31
2023-04-18T08:06:55.953Z,62.96
2023-04-18T08:13:18.342Z,61.97
2023-04-18T08:26:51.006Z,60.12
2023-04-18T08:32:24.632Z,59.06
2023-04-18T08:44:38.361Z,57.15
2023-04-18T08:49:44.260Z,55.64
2023-04-18T08:54:49.569Z,54.86
2023-04-18T08:59:54.480Z,53.44
2023-04-18T09:04:58.256Z,53.06
2023-04-18T09:10:34.869Z,52.25
2023-04-18T09:15:38.868Z,50.21
2023-04-18T09:20:43.160Z,49.54
2023-04-18T09:26:42.539Z,49.58
2023-04-18T09:47:56.199Z,46.78
2023-04-18T09:53:26.218Z,45.24
2023-04-18T09:58:34.786Z,45.10
2023-04-18T10:11:11.124Z,44.10
2023-04-18T10:16:17.256Z,45.13
2023-04-18T10:22:12.845Z,43.35
2023-04-18T10:28:39.124Z,43.39
2023-04-18T10:40:51.397Z,43.43
2023-04-18T10:46:31.608Z,42.30
2023-04-18T10:51:36.537Z,43.44
2023-04-18T10:56:40.956Z,43.77
2023-04-18T11:02:30.658Z,41.69
2023-04-18T11:15:40.539Z,39.97
2023-04-18T11:28:07.014Z,42.87
2023-04-18T11:34:33.328Z,43.15
2023-04-18T11:40:59.203Z,42.39
2023-04-18T11:46:03.114Z,42.12
2023-04-18T11:51:57.989Z,40.37
2023-04-18T11:57:02.983Z,41.60
2023-04-18T12:09:27.156Z,44.03
2023-04-18T12:21:20.349Z,45.03
2023-04-18T12:27:54.009Z,44.81
2023-04-18T12:33:22.848Z,45.38
2023-04-18T12:38:27.445Z,46.14
2023-04-18T12:44:48.516Z,46.81
2023-04-18T12:49:52.976Z,47.06
2023-04-18T12:55:26.366Z,46.10
2023-04-18T13:00:34.165Z,45.86
2023-04-18T13:05:40.795Z,45.83
2023-04-18T13:10:46.070Z,44.46
2023-04-18T13:15:51.937Z,42.59
2023-04-18T13:20:56.949Z,43.99
2023-04-18T13:26:02.695Z,46.28
2023-04-18T13:31:07.509Z,47.72
2023-04-18T13:36:11.939Z,49.10
2023-04-18T13:41:21.017Z,50.17
2023-04-18T13:46:26.925Z,51.47
2023-04-18T13:52:21.497Z,52.57
2023-04-18T13:57:52.464Z,54.24
2023-04-18T14:02:58.152Z,55.28
2023-04-18T14:08:07.041Z,56.28
2023-04-18T14:13:47.130Z,56.96
2023-04-18T14:19:42.043Z,57.22
2023-04-18T14:25:47.629Z,57.31
2023-04-18T14:30:52.778Z,55.92
2023-04-18T14:35:57.119Z,55.19
2023-04-18T14:41:02.273Z,56.35
2023-04-18T14:54:56.678Z,57.65
2023-04-18T15:12:01.582Z,59.21
2023-04-18T15:24:33.954Z,60.34
2023-04-18T15:45:30.614Z,62.51
2023-04-18T15:50:34.451Z,62.80
2023-04-18T16:03:47.396Z,63.38
2023-04-18T16:08:51.449Z,63.74
2023-04-18T16:13:56.524Z,63.92
2023-04-18T16:19:01.784Z,64.22
2023-04-18T16:24:06.478Z,64.57
2023-04-18T16:29:12.420Z,65.04
2023-04-18T16:34:18.132Z,65.22
2023-04-18T16:39:24.261Z,65.67
2023-04-18T16:44:31.170Z,65.96
2023-04-18T16:49:36.555Z,66.48
2023-04-18T16:54:41.908Z,66.97
2023-04-18T16:59:46.202Z,67.37
2023-04-18T17:12:18.322Z,68.25
2023-04-18T17:17:24.132Z,68.32
2023-04-18T17:22:28.274Z,67.89
2023-04-18T17:27:35.033Z,67.47
2023-04-18T17:32:46.322Z,67.61
2023-04-18T17:37:53.232Z,67.89
2023-04-18T17:43:15.317Z,67.97
2023-04-18T17:48:21.738Z,68.18
2023-04-18T17:53:27.567Z,68.37
2023-04-18T17:58:32.418Z,68.64
2023-04-18T18:03:39.533Z,68.79
2023-04-18T18:09:13.288Z,68.96
2023-04-18T18:14:17.925Z,69.21
2023-04-18T18:34:22.446Z,70.19
2023-04-18T18:39:53.016Z,70.33
2023-04-18T18:44:57.008Z,70.33
2023-04-18T18:51:28.543Z,70.09
2023-04-18T18:56:32.898Z,69.83
2023-04-18T19:10:06.793Z,69.69
2023-04-18T19:15:12.141Z,69.64
2023-04-18T19:21:06.215Z,69.59
2023-04-18T19:27:31.516Z,69.71
2023-04-18T19:40:28.636Z,68.61
2023-04-18T20:00:55.757Z,66.54
2023-04-18T20:13:03.614Z,68.88
2023-04-18T20:19:47.863Z,68.88
2023-04-18T20:42:19.661Z,69.64
2023-04-18T20:48:14.054Z,69.98
2023-04-18T20:54:02.662Z,70.24
2023-04-18T20:59:08.845Z,70.48
2023-04-18T21:12:28.033Z,70.64
2023-04-18T21:26:01.926Z,71.06
2023-04-18T21:31:06.209Z,71.21
2023-04-18T21:43:28.480Z,71.64
2023-04-18T21:48:32.199Z,71.61
2023-04-18T21:55:12.914Z,71.57
2023-04-18T22:00:17.451Z,71.50
2023-04-18T22:05:21.593Z,71.56
2023-04-18T22:10:25.806Z,71.68
2023-04-18T22:15:30.507Z,71.76
2023-04-18T22:21:00.147Z,71.98
2023-04-18T22:26:04.014Z,72.25
2023-04-18T22:31:07.955Z,72.33
2023-04-18T22:36:11.810Z,72.37
2023-04-18T22:41:15.657Z,72.28
2023-04-18T22:46:19.799Z,72.42
2023-04-18T22:51:50.259Z,72.57
2023-04-18T22:57:50.416Z,72.71
2023-04-18T23:03:19.724Z,72.79
2023-04-18T23:09:03.700Z,72.88
2023-04-18T23:29:08.435Z,73.54
2023-04-18T23:51:55.869Z,74.04
2023-04-18T23:56:59.831Z,74.17
